Eagle Bay — KEBO — position and weather

sailwx.info

Track history (hours):
 
Tides and Currents Weather Stations Pressure Air Temp Water Temp Dewpoint Dewpoint Depression Visibility Wind Speed Wind Dir Waves Ship Positions

Eagle Bay

Owner: EXXON COMMUNICATIONS COMPANY, THE WOODLANDS, TX. More information available from US FCC via Universal Licensing System and Coast Guard Vessel Documentation Center.

Last reported at 2017-Dec-11 08:12 UTC. Time now 2017-Dec-12 20:01 UTC.
Position N 43°23' W 130°41'.

Length 251 m; draft 12.5 m.

Type: Tanker. MMSI: 338500000.

Date/timePositionNaut miles runAvg speedWind from/ knotsBaromVisibWave heightAir tempDewpointWater temp
2017-Dec-11 08:12N 43°23' W 130°41'312.9
2017-Dec-11 08:00N 43°25' W 130°43'612.7
2017-Dec-11 07:30N 43°31' W 130°46'612.7
2017-Dec-11 07:00N 43°36' W 130°51'612.7
2017-Dec-11 06:30N 43°42' W 130°55'712.8
2017-Dec-11 05:59N 43°48' W 130°60'612.7
2017-Dec-11 05:30N 43°53' W 131°04'1312.3
2017-Dec-11 04:29N 44°03' W 131°14'612.2
2017-Dec-11 03:59N 44°08' W 131°18'5312.5
2017-Dec-10 23:46N 44°55' W 131°54'412.4
2017-Dec-10 23:27N 44°58' W 131°57'612.3
2017-Dec-10 23:00N 45°03' W 132°01'612.2
2017-Dec-10 22:30N 45°08' W 132°05'612.4
2017-Dec-10 22:00N 45°13' W 132°09'1512.1
2017-Dec-10 20:48N 45°26' W 132°20'  
2017-Dec-06 20:00N 58°36' W 143°54'   140 / 401015.0 5.4 7.2 7.8
Track history (hours):
 
Tides and Currents Weather Stations Pressure Air Temp Water Temp Dewpoint Dewpoint Depression Visibility Wind Speed Wind Dir Waves Ship Positions

Eagle Bay

Owner: EXXON COMMUNICATIONS COMPANY, THE WOODLANDS, TX. More information available from US FCC via Universal Licensing System and Coast Guard Vessel Documentation Center.

Last reported at 2017-Dec-11 08:12 UTC. Time now 2017-Dec-12 20:01 UTC.
Position N 43°23' W 130°41'.

Length 251 m; draft 12.5 m.

Type: Tanker. MMSI: 338500000.

Date/timePositionNaut miles runAvg speedWind from/ knotsBaromVisibWave heightAir tempDewpointWater temp
2017-Dec-11 08:12N 43°23' W 130°41'312.9
2017-Dec-11 08:00N 43°25' W 130°43'612.7
2017-Dec-11 07:30N 43°31' W 130°46'612.7
2017-Dec-11 07:00N 43°36' W 130°51'612.7
2017-Dec-11 06:30N 43°42' W 130°55'712.8
2017-Dec-11 05:59N 43°48' W 130°60'612.7
2017-Dec-11 05:30N 43°53' W 131°04'1312.3
2017-Dec-11 04:29N 44°03' W 131°14'612.2
2017-Dec-11 03:59N 44°08' W 131°18'5312.5
2017-Dec-10 23:46N 44°55' W 131°54'412.4
2017-Dec-10 23:27N 44°58' W 131°57'612.3
2017-Dec-10 23:00N 45°03' W 132°01'612.2
2017-Dec-10 22:30N 45°08' W 132°05'612.4
2017-Dec-10 22:00N 45°13' W 132°09'1512.1
2017-Dec-10 20:48N 45°26' W 132°20'  
2017-Dec-06 20:00N 58°36' W 143°54'   140 / 401015.0 5.4 7.2 7.8

Dump ship's entire track history